createdAt,value
2018-04-30T00:02:08.907Z,70.60
2018-04-30T00:04:36.292Z,71.40
2018-04-30T00:07:02.959Z,71.40
2018-04-30T00:09:29.620Z,71.50
2018-04-30T00:11:56.320Z,71.70
2018-04-30T00:14:23.004Z,71.90
2018-04-30T00:16:49.672Z,72.30
2018-04-30T00:19:16.312Z,71.40
2018-04-30T00:21:42.964Z,72.30
2018-04-30T00:24:09.624Z,73.60
2018-04-30T00:26:36.285Z,72.60
2018-04-30T00:29:02.979Z,72.40
2018-04-30T00:31:29.665Z,72.80
2018-04-30T00:33:56.325Z,73.60
2018-04-30T00:36:23.765Z,74.00
2018-04-30T00:38:51.164Z,73.60
2018-04-30T00:41:17.812Z,73.60
2018-04-30T00:43:44.469Z,73.40
2018-04-30T00:46:11.132Z,73.00
2018-04-30T00:48:38.537Z,72.80
2018-04-30T00:51:05.196Z,72.80
2018-04-30T00:53:31.836Z,71.30
2018-04-30T00:55:58.496Z,70.60
2018-04-30T00:58:25.143Z,70.80
2018-04-30T01:00:52.551Z,72.80
2018-04-30T01:03:19.209Z,72.80
2018-04-30T01:05:45.859Z,74.00
2018-04-30T01:08:12.511Z,74.60
2018-04-30T01:10:39.177Z,74.80
2018-04-30T01:13:05.831Z,75.10
2018-04-30T01:15:33.204Z,74.30
2018-04-30T01:17:59.869Z,74.30
2018-04-30T01:20:26.512Z,74.70
2018-04-30T01:22:53.158Z,74.10
2018-04-30T01:25:20.559Z,74.00
2018-04-30T01:27:47.212Z,74.00
2018-04-30T01:30:13.884Z,74.80
2018-04-30T01:32:41.306Z,76.70
2018-04-30T01:35:07.976Z,76.70
2018-04-30T01:37:35.380Z,77.20
2018-04-30T01:40:02.053Z,77.20
2018-04-30T01:42:28.717Z,77.10
2018-04-30T01:44:56.142Z,77.10
2018-04-30T01:47:22.814Z,77.10
2018-04-30T01:49:50.217Z,76.90
2018-04-30T01:52:16.920Z,76.90
2018-04-30T01:54:43.582Z,76.40
2018-04-30T01:57:10.277Z,77.60
2018-04-30T01:59:37.681Z,77.60
2018-04-30T02:02:04.331Z,77.60
2018-04-30T02:04:31.017Z,76.90
2018-04-30T02:06:58.422Z,78.90
2018-04-30T02:09:25.083Z,78.70
2018-04-30T02:11:51.742Z,79.20
2018-04-30T02:14:19.137Z,79.40
2018-04-30T02:16:45.802Z,79.40
2018-04-30T02:19:12.457Z,79.90
2018-04-30T02:21:39.134Z,81.30
2018-04-30T02:24:05.811Z,80.70
2018-04-30T02:26:32.484Z,80.50
2018-04-30T02:28:59.883Z,81.10
2018-04-30T02:31:26.539Z,81.10
2018-04-30T02:33:53.201Z,80.50
2018-04-30T02:36:19.837Z,80.00
2018-04-30T02:38:46.497Z,80.30
2018-04-30T02:41:13.897Z,79.50
2018-04-30T02:43:40.543Z,79.40
2018-04-30T02:46:07.245Z,79.50
2018-04-30T02:48:33.900Z,79.50
2018-04-30T02:51:00.579Z,79.60
2018-04-30T02:53:27.224Z,79.20
2018-04-30T02:55:53.902Z,79.40
2018-04-30T02:58:20.552Z,77.90
2018-04-30T03:00:47.236Z,78.90
2018-04-30T03:03:13.893Z,79.80
2018-04-30T03:05:41.303Z,81.80
2018-04-30T03:08:07.976Z,81.80
2018-04-30T03:10:35.387Z,78.40
2018-04-30T03:13:02.035Z,78.40
2018-04-30T03:15:28.709Z,79.50
2018-04-30T03:17:56.176Z,81.60
2018-04-30T03:20:23.581Z,81.90
2018-04-30T03:22:50.229Z,81.90
2018-04-30T03:25:16.863Z,81.80
2018-04-30T03:27:43.557Z,82.00
2018-04-30T03:30:10.207Z,81.40
2018-04-30T03:32:36.867Z,80.50
2018-04-30T03:35:03.571Z,80.00
2018-04-30T03:37:30.241Z,79.90
2018-04-30T03:39:56.891Z,79.90
2018-04-30T03:42:23.535Z,79.20
2018-04-30T03:44:50.183Z,78.10
2018-04-30T03:47:16.864Z,77.90
2018-04-30T03:49:43.562Z,77.20
2018-04-30T03:52:10.224Z,77.40
2018-04-30T03:54:37.611Z,77.90
2018-04-30T03:57:04.269Z,77.90
2018-04-30T03:59:30.947Z,77.70
2018-04-30T04:02:16.810Z,77.90
2018-04-30T04:08:10.521Z,77.20
2018-04-30T04:10:38.083Z,77.60
2018-04-30T04:13:05.476Z,79.40
2018-04-30T04:15:32.122Z,79.40
2018-04-30T04:17:58.791Z,80.30
2018-04-30T04:20:25.557Z,81.50
2018-04-30T04:22:52.944Z,83.10
2018-04-30T04:25:19.591Z,83.10
2018-04-30T04:27:46.257Z,83.30
2018-04-30T04:30:13.829Z,85.20
2018-04-30T04:32:40.476Z,84.70
2018-04-30T04:35:07.884Z,84.80
2018-04-30T04:37:34.533Z,84.70
2018-04-30T04:40:01.171Z,84.10
2018-04-30T04:42:27.844Z,85.00
2018-04-30T04:44:55.285Z,83.70
2018-04-30T04:47:21.963Z,83.70
2018-04-30T04:49:48.618Z,83.60
2018-04-30T04:52:15.316Z,82.80
2018-04-30T04:54:52.650Z,83.30
2018-04-30T04:57:19.403Z,83.30
2018-04-30T04:59:46.136Z,84.20
2018-04-30T05:02:12.796Z,82.60
2018-04-30T05:04:39.471Z,80.50
2018-04-30T05:07:06.866Z,80.00
2018-04-30T05:09:33.544Z,80.00
2018-04-30T05:12:00.183Z,81.50
2018-04-30T05:14:26.866Z,81.10
2018-04-30T05:16:53.534Z,80.00
2018-04-30T05:19:20.203Z,79.50
2018-04-30T05:21:47.636Z,78.20
2018-04-30T05:24:14.278Z,78.10
2018-04-30T05:26:40.929Z,78.00
2018-04-30T05:29:08.328Z,78.70
2018-04-30T05:31:35.037Z,78.70
2018-04-30T05:34:02.450Z,79.30
2018-04-30T05:36:29.180Z,79.30
2018-04-30T05:38:55.824Z,79.90
2018-04-30T05:41:22.488Z,78.90
2018-04-30T05:43:49.128Z,79.50
2018-04-30T05:46:17.490Z,76.70
2018-04-30T05:48:44.191Z,76.70
2018-04-30T05:51:10.883Z,75.30
2018-04-30T05:53:37.571Z,76.80
2018-04-30T05:56:04.230Z,76.00
2018-04-30T05:58:30.934Z,76.00
2018-04-30T06:00:57.651Z,73.80
2018-04-30T06:03:25.047Z,70.70
2018-04-30T06:05:51.705Z,70.70
2018-04-30T06:08:18.405Z,68.50
2018-04-30T06:10:45.050Z,68.80
2018-04-30T06:13:11.692Z,68.20
2018-04-30T06:15:38.344Z,67.10
2018-04-30T06:18:05.759Z,67.00
2018-04-30T06:20:33.217Z,67.50
2018-04-30T06:23:00.620Z,66.80
2018-04-30T06:25:27.277Z,67.60
2018-04-30T06:27:53.961Z,66.30
2018-04-30T06:30:20.613Z,66.30
2018-04-30T06:32:47.281Z,65.30
2018-04-30T06:35:13.924Z,64.40
2018-04-30T06:37:40.564Z,64.70
2018-04-30T06:40:07.204Z,63.30
2018-04-30T06:42:33.908Z,62.40
2018-04-30T06:45:00.568Z,62.60
2018-04-30T06:47:27.241Z,62.80
2018-04-30T06:49:54.656Z,61.20
2018-04-30T06:52:21.314Z,61.20
2018-04-30T06:54:47.973Z,60.70
2018-04-30T06:57:14.632Z,59.70
2018-04-30T06:59:41.304Z,58.80
2018-04-30T07:02:07.982Z,56.60
2018-04-30T07:04:35.397Z,54.90
2018-04-30T07:07:02.092Z,54.90
2018-04-30T07:09:28.906Z,54.90
2018-04-30T07:11:56.222Z,53.90
2018-04-30T07:14:22.883Z,54.00
2018-04-30T07:16:49.547Z,53.80
2018-04-30T07:19:16.965Z,52.40
2018-04-30T07:21:45.404Z,52.50
2018-04-30T07:24:12.090Z,53.60
2018-04-30T07:26:38.824Z,52.80
2018-04-30T07:29:05.559Z,53.40
2018-04-30T07:31:32.224Z,52.20
2018-04-30T07:33:58.929Z,52.50
2018-04-30T07:36:25.599Z,52.60
2018-04-30T07:38:52.252Z,51.90
2018-04-30T07:41:19.644Z,51.80
2018-04-30T07:43:46.344Z,51.70
2018-04-30T07:46:13.805Z,53.30
2018-04-30T07:48:41.207Z,53.90
2018-04-30T07:51:07.873Z,53.80
2018-04-30T07:53:34.524Z,52.90
2018-04-30T07:56:01.918Z,51.90
2018-04-30T07:58:28.611Z,51.80
2018-04-30T08:00:55.300Z,50.60
2018-04-30T08:03:21.932Z,49.10
2018-04-30T08:05:48.600Z,48.60
2018-04-30T08:08:15.262Z,48.40
2018-04-30T08:10:41.951Z,46.60
2018-04-30T08:13:08.668Z,44.30
2018-04-30T08:15:35.327Z,44.90
2018-04-30T08:18:02.017Z,43.60
2018-04-30T08:20:29.474Z,43.40
2018-04-30T08:22:57.009Z,43.30
2018-04-30T08:25:23.695Z,43.40
2018-04-30T08:27:51.077Z,41.70
2018-04-30T08:30:17.783Z,41.70
2018-04-30T08:32:45.176Z,43.20
2018-04-30T08:35:11.877Z,43.20
2018-04-30T08:37:39.264Z,42.10
2018-04-30T08:40:05.924Z,42.10
2018-04-30T08:42:32.595Z,40.70
2018-04-30T08:45:00.161Z,41.30
2018-04-30T08:47:26.771Z,41.30
2018-04-30T08:49:53.452Z,38.90
2018-04-30T08:52:20.124Z,39.90
2018-04-30T08:54:46.820Z,39.70
2018-04-30T08:57:13.477Z,39.50
2018-04-30T08:59:40.158Z,38.80
2018-04-30T09:02:06.812Z,38.30
2018-04-30T09:04:33.464Z,37.80
2018-04-30T09:07:00.871Z,36.40
2018-04-30T09:09:27.572Z,36.40
2018-04-30T09:11:54.244Z,37.10
2018-04-30T09:14:20.897Z,36.90
2018-04-30T09:16:47.614Z,36.80
2018-04-30T09:19:14.297Z,36.70
2018-04-30T09:21:41.001Z,34.90
2018-04-30T09:24:07.691Z,36.60
2018-04-30T09:26:35.097Z,36.90
2018-04-30T09:29:01.841Z,36.90
2018-04-30T09:31:29.298Z,34.20
2018-04-30T09:33:56.094Z,34.10
2018-04-30T09:36:24.385Z,34.40
2018-04-30T09:38:51.111Z,34.40
2018-04-30T09:41:17.899Z,35.20
2018-04-30T09:43:44.604Z,34.90
2018-04-30T09:46:11.317Z,36.50
2018-04-30T09:48:38.725Z,36.80
2018-04-30T09:51:05.372Z,36.70
2018-04-30T09:53:32.058Z,38.80
2018-04-30T09:55:59.545Z,34.20
2018-04-30T09:58:26.239Z,34.20
2018-04-30T10:00:53.681Z,38.30
2018-04-30T10:03:21.204Z,38.30
2018-04-30T10:05:48.665Z,39.40
2018-04-30T10:08:15.339Z,39.70
2018-04-30T10:10:42.024Z,40.10
2018-04-30T10:13:08.682Z,39.20
2018-04-30T10:15:38.452Z,38.50
2018-04-30T10:18:05.177Z,39.00
2018-04-30T10:20:32.642Z,39.50
2018-04-30T10:23:00.043Z,41.10
2018-04-30T10:25:27.432Z,41.00
2018-04-30T10:27:54.132Z,39.70
2018-04-30T10:30:20.824Z,38.80
2018-04-30T10:32:48.212Z,37.50
2018-04-30T10:35:14.942Z,37.50
2018-04-30T10:37:41.680Z,37.40
2018-04-30T10:40:08.289Z,37.00
2018-04-30T10:42:35.693Z,38.30
2018-04-30T10:45:02.431Z,38.30
2018-04-30T10:47:29.074Z,38.70
2018-04-30T10:49:55.716Z,39.80
2018-04-30T10:52:22.376Z,40.20
2018-04-30T10:54:49.054Z,40.50
2018-04-30T10:57:15.744Z,40.80
2018-04-30T10:59:42.409Z,40.90
2018-04-30T11:02:09.102Z,37.90
2018-04-30T11:04:35.760Z,38.90
2018-04-30T11:07:02.478Z,40.00
2018-04-30T11:09:29.160Z,40.80
2018-04-30T11:11:55.812Z,41.00
2018-04-30T11:14:23.227Z,42.10
2018-04-30T11:16:49.904Z,42.00
2018-04-30T11:19:17.317Z,42.10
2018-04-30T11:21:44.012Z,42.10
2018-04-30T11:24:10.678Z,41.60
2018-04-30T11:26:37.352Z,41.10
2018-04-30T11:29:04.048Z,41.90
2018-04-30T11:31:30.707Z,42.40
2018-04-30T11:33:57.377Z,42.00
2018-04-30T11:36:24.772Z,43.70
2018-04-30T11:38:51.440Z,43.60
2018-04-30T11:41:18.113Z,43.90
2018-04-30T11:43:45.600Z,41.30
2018-04-30T11:46:12.328Z,41.30
2018-04-30T11:48:39.072Z,39.20
2018-04-30T11:51:05.832Z,35.20
2018-04-30T11:53:32.537Z,36.30
2018-04-30T11:55:59.272Z,37.00
2018-04-30T11:58:26.052Z,39.10
2018-04-30T12:00:52.720Z,38.40
2018-04-30T12:03:19.437Z,38.80
2018-04-30T12:05:46.153Z,40.70
2018-04-30T12:08:12.893Z,39.60
2018-04-30T12:10:39.565Z,39.00
2018-04-30T12:13:06.238Z,39.10
2018-04-30T12:15:33.660Z,38.60
2018-04-30T12:18:00.325Z,39.20
2018-04-30T12:20:27.817Z,33.70
2018-04-30T12:22:54.827Z,33.70
2018-04-30T12:25:21.520Z,34.10
2018-04-30T12:27:48.247Z,34.30
2018-04-30T12:30:14.989Z,34.00
2018-04-30T12:32:41.680Z,33.40
2018-04-30T12:35:09.115Z,33.60
2018-04-30T12:37:35.804Z,32.90
2018-04-30T12:40:02.562Z,31.90
2018-04-30T12:42:29.269Z,33.10
2018-04-30T12:44:55.968Z,35.30
2018-04-30T12:47:22.668Z,37.60
2018-04-30T12:49:49.400Z,39.00
2018-04-30T12:52:16.130Z,41.00
2018-04-30T12:54:42.867Z,39.80
2018-04-30T12:57:09.572Z,40.00
2018-04-30T12:59:36.252Z,39.10
2018-04-30T13:02:02.993Z,39.00
2018-04-30T13:04:29.737Z,39.70
2018-04-30T13:06:56.425Z,39.80
2018-04-30T13:09:23.092Z,41.20
2018-04-30T13:11:50.533Z,40.60
2018-04-30T13:14:17.989Z,39.40
2018-04-30T13:16:45.414Z,37.30
2018-04-30T13:19:12.097Z,37.30
2018-04-30T13:21:39.507Z,35.20
2018-04-30T13:24:06.181Z,35.10
2018-04-30T13:26:32.892Z,35.50
2018-04-30T13:28:59.611Z,38.20
2018-04-30T13:31:26.311Z,38.70
2018-04-30T13:33:53.776Z,40.10
2018-04-30T13:36:21.222Z,40.90
2018-04-30T13:38:48.611Z,39.60
2018-04-30T13:41:15.269Z,39.50
2018-04-30T13:43:41.973Z,40.00
2018-04-30T13:46:08.714Z,39.80
2018-04-30T13:48:35.399Z,40.40
2018-04-30T13:51:02.059Z,40.50
2018-04-30T13:53:28.754Z,39.30
2018-04-30T13:55:55.452Z,40.40
2018-04-30T13:58:22.867Z,40.20
2018-04-30T14:00:49.601Z,40.30
2018-04-30T14:03:16.301Z,39.60
2018-04-30T14:05:42.991Z,39.40
2018-04-30T14:08:09.669Z,37.40
2018-04-30T14:10:37.087Z,38.20
2018-04-30T14:13:03.757Z,38.30
2018-04-30T14:15:31.184Z,35.80
2018-04-30T14:17:57.863Z,35.70
2018-04-30T14:20:24.517Z,36.70
2018-04-30T14:22:51.173Z,36.50
2018-04-30T14:25:18.845Z,37.20
2018-04-30T14:27:45.625Z,39.40
2018-04-30T14:30:12.304Z,39.10
2018-04-30T14:32:38.961Z,37.40
2018-04-30T14:35:05.676Z,36.90
2018-04-30T14:37:32.363Z,36.20
2018-04-30T14:39:59.044Z,37.50
2018-04-30T14:42:25.722Z,38.50
2018-04-30T14:44:53.149Z,38.70
2018-04-30T14:47:19.836Z,38.70
2018-04-30T14:49:46.483Z,37.70
2018-04-30T14:52:13.899Z,36.10
2018-04-30T14:54:41.330Z,37.30
2018-04-30T14:57:07.976Z,37.30
2018-04-30T14:59:34.646Z,37.50
2018-04-30T15:02:01.329Z,39.80
2018-04-30T15:04:28.016Z,41.20
2018-04-30T15:06:54.876Z,40.90
2018-04-30T15:09:21.548Z,41.60
2018-04-30T15:11:48.249Z,41.00
2018-04-30T15:14:14.916Z,41.10
2018-04-30T15:16:42.336Z,40.20
2018-04-30T15:19:08.997Z,40.10
2018-04-30T15:21:36.441Z,39.60
2018-04-30T15:24:03.168Z,39.60
2018-04-30T15:26:29.826Z,38.90
2018-04-30T15:28:56.496Z,38.30
2018-04-30T15:31:23.238Z,38.30
2018-04-30T15:33:49.965Z,37.60
2018-04-30T15:36:29.376Z,36.90
2018-04-30T15:38:56.383Z,36.10
2018-04-30T15:41:23.099Z,37.50
2018-04-30T15:43:50.504Z,35.60
2018-04-30T15:46:17.215Z,35.60
2018-04-30T15:48:43.954Z,34.90
2018-04-30T15:51:10.589Z,35.30
2018-04-30T15:53:37.255Z,35.60
2018-04-30T15:56:03.979Z,36.20
2018-04-30T15:58:30.646Z,37.90
2018-04-30T16:00:57.334Z,38.40
2018-04-30T16:03:23.997Z,39.30
2018-04-30T16:05:50.660Z,39.10
2018-04-30T16:08:18.061Z,42.10
2018-04-30T16:10:44.749Z,42.10
2018-04-30T16:13:11.446Z,43.80
2018-04-30T16:15:38.109Z,45.30
2018-04-30T16:18:04.795Z,47.00
2018-04-30T16:20:31.469Z,47.40
2018-04-30T16:22:58.148Z,47.90
2018-04-30T16:25:25.596Z,49.50
2018-04-30T16:27:52.301Z,48.90
2018-04-30T16:30:18.986Z,48.30
2018-04-30T16:32:47.209Z,49.90
2018-04-30T16:35:13.862Z,49.80
2018-04-30T16:37:40.557Z,50.40
2018-04-30T16:40:07.343Z,51.20
2018-04-30T16:42:34.013Z,52.50
2018-04-30T16:45:01.489Z,54.10
2018-04-30T16:47:28.177Z,54.10
2018-04-30T16:49:54.922Z,53.60
2018-04-30T16:52:21.612Z,54.60
2018-04-30T16:54:48.304Z,55.60
2018-04-30T16:57:14.997Z,56.00
2018-04-30T16:59:41.749Z,56.30
2018-04-30T17:02:08.451Z,56.90
2018-04-30T17:04:35.924Z,57.40
2018-04-30T17:07:02.606Z,57.30
2018-04-30T17:09:29.284Z,57.90
2018-04-30T17:11:56.782Z,57.60
2018-04-30T17:14:23.419Z,57.70
2018-04-30T17:16:50.107Z,57.60
2018-04-30T17:19:17.529Z,57.90
2018-04-30T17:21:44.199Z,57.70
2018-04-30T17:24:10.972Z,57.90
2018-04-30T17:26:37.669Z,57.70
2018-04-30T17:29:04.357Z,57.40
2018-04-30T17:31:31.024Z,58.10
2018-04-30T17:33:57.737Z,58.10
2018-04-30T17:36:25.199Z,58.50
2018-04-30T17:38:51.957Z,58.50
2018-04-30T17:41:18.656Z,58.50
2018-04-30T17:43:45.364Z,58.50
2018-04-30T17:46:12.452Z,59.00
2018-04-30T17:48:39.173Z,58.90
2018-04-30T17:51:06.577Z,59.20
2018-04-30T17:53:33.269Z,59.20
2018-04-30T17:56:00.010Z,59.50
2018-04-30T17:58:26.708Z,59.90
2018-04-30T18:00:53.376Z,60.50
2018-04-30T18:03:20.822Z,61.20
2018-04-30T18:05:48.257Z,61.90
2018-04-30T18:08:14.953Z,61.90
2018-04-30T18:10:41.632Z,62.50
2018-04-30T18:13:08.342Z,63.00
2018-04-30T18:15:35.048Z,62.90
2018-04-30T18:18:02.528Z,63.20
2018-04-30T18:20:29.198Z,63.20
2018-04-30T18:22:55.937Z,63.40
2018-04-30T18:25:22.639Z,63.40
2018-04-30T18:27:49.337Z,63.80
2018-04-30T18:30:16.772Z,63.90
2018-04-30T18:32:43.460Z,63.90
2018-04-30T18:35:11.186Z,64.30
2018-04-30T18:37:37.945Z,64.80
2018-04-30T18:40:05.434Z,64.10
2018-04-30T18:42:32.137Z,64.10
2018-04-30T18:44:59.616Z,64.70
2018-04-30T18:47:26.398Z,64.70
2018-04-30T18:49:53.142Z,64.40
2018-04-30T18:52:19.878Z,64.20
2018-04-30T18:54:46.590Z,63.70
2018-04-30T18:57:14.358Z,63.50
2018-04-30T18:59:41.093Z,63.30
2018-04-30T19:02:08.675Z,62.70
2018-04-30T19:04:35.394Z,62.20
2018-04-30T19:07:02.165Z,62.30
2018-04-30T19:09:28.870Z,62.10
2018-04-30T19:11:55.579Z,61.90
2018-04-30T19:14:23.028Z,61.90
2018-04-30T19:16:50.522Z,61.90
2018-04-30T19:19:17.292Z,61.90
2018-04-30T19:21:44.013Z,62.10
2018-04-30T19:24:11.456Z,62.50
2018-04-30T19:26:38.188Z,62.50
2018-04-30T19:29:04.903Z,62.30
2018-04-30T19:31:32.361Z,62.40
2018-04-30T19:33:59.843Z,62.40
2018-04-30T19:36:26.574Z,62.40
2018-04-30T19:38:54.054Z,62.60
2018-04-30T19:41:20.740Z,62.60
2018-04-30T19:43:48.206Z,63.50
2018-04-30T19:46:15.660Z,65.80
2018-04-30T19:48:45.348Z,65.70
2018-04-30T19:51:12.086Z,67.40
2018-04-30T19:53:38.753Z,67.40
2018-04-30T19:56:06.201Z,68.60
2018-04-30T19:58:32.899Z,68.10
2018-04-30T20:00:59.607Z,69.00
2018-04-30T20:03:26.335Z,69.70
2018-04-30T20:05:53.737Z,70.80
2018-04-30T20:08:20.449Z,70.80
2018-04-30T20:10:47.150Z,70.60
2018-04-30T20:13:13.846Z,70.90
2018-04-30T20:15:40.518Z,69.90
2018-04-30T20:18:07.212Z,70.60
2018-04-30T20:20:33.900Z,71.30
2018-04-30T20:23:00.578Z,72.10
2018-04-30T20:25:27.296Z,73.00
2018-04-30T20:27:54.742Z,74.20
2018-04-30T20:30:22.233Z,74.00
2018-04-30T20:32:48.939Z,74.00
2018-04-30T20:35:16.433Z,75.00
2018-04-30T20:37:43.147Z,75.00
2018-04-30T20:40:10.568Z,75.40
2018-04-30T20:42:37.298Z,75.40
2018-04-30T20:45:04.050Z,75.40
2018-04-30T20:47:30.775Z,75.50
2018-04-30T20:49:57.729Z,75.20
2018-04-30T20:52:24.408Z,75.20
2018-04-30T20:54:51.831Z,75.90
2018-04-30T20:57:18.520Z,75.80
2018-04-30T20:59:45.209Z,76.30
2018-04-30T21:02:11.901Z,77.40
2018-04-30T21:04:38.602Z,78.40
2018-04-30T21:07:05.277Z,78.50
2018-04-30T21:09:31.988Z,78.90
2018-04-30T21:11:59.418Z,79.60
2018-04-30T21:14:26.104Z,79.50
2018-04-30T21:16:52.822Z,80.00
2018-04-30T21:19:20.258Z,80.50
2018-04-30T21:21:46.917Z,80.40
2018-04-30T21:24:15.285Z,80.80
2018-04-30T21:26:41.972Z,80.70
2018-04-30T21:29:08.632Z,80.70
2018-04-30T21:31:35.297Z,81.10
2018-04-30T21:34:02.757Z,80.70
2018-04-30T21:36:29.489Z,80.70
2018-04-30T21:38:56.181Z,80.40
2018-04-30T21:41:22.845Z,80.00
2018-04-30T21:43:49.809Z,79.60
2018-04-30T21:46:16.455Z,79.90
2018-04-30T21:48:43.881Z,79.80
2018-04-30T21:51:11.309Z,79.80
2018-04-30T21:53:37.985Z,80.10
2018-04-30T21:56:04.687Z,80.10
2018-04-30T21:58:31.347Z,80.60
2018-04-30T22:00:58.033Z,80.80
2018-04-30T22:03:25.484Z,81.00
2018-04-30T22:05:52.889Z,81.10
2018-04-30T22:08:19.564Z,81.10
2018-04-30T22:10:47.016Z,82.20
2018-04-30T22:13:13.681Z,82.20
2018-04-30T22:15:41.074Z,83.00
2018-04-30T22:18:07.751Z,83.00
2018-04-30T22:20:34.419Z,83.40
2018-04-30T22:23:01.169Z,83.90
2018-04-30T22:25:27.837Z,84.30
2018-04-30T22:27:54.502Z,83.70
2018-04-30T22:30:21.151Z,83.50
2018-04-30T22:32:48.577Z,84.60
2018-04-30T22:35:15.296Z,84.60
2018-04-30T22:37:41.937Z,84.50
2018-04-30T22:40:08.612Z,84.60
2018-04-30T22:42:35.301Z,84.70
2018-04-30T22:45:01.962Z,84.50
2018-04-30T22:47:28.637Z,84.40
2018-04-30T22:49:56.037Z,84.20
2018-04-30T22:52:23.248Z,84.30
2018-04-30T22:54:50.652Z,85.00
2018-04-30T22:57:17.317Z,85.10
2018-04-30T22:59:44.004Z,84.80
2018-04-30T23:02:10.780Z,85.10
2018-04-30T23:04:38.157Z,84.60
2018-04-30T23:07:05.609Z,84.60
2018-04-30T23:09:32.293Z,84.60
2018-04-30T23:11:59.004Z,84.80
2018-04-30T23:14:26.433Z,85.00
2018-04-30T23:16:53.133Z,84.90
2018-04-30T23:19:20.605Z,85.20
2018-04-30T23:21:47.271Z,85.20
2018-04-30T23:24:13.975Z,84.90
2018-04-30T23:26:40.624Z,83.80
2018-04-30T23:29:07.276Z,83.30
2018-04-30T23:31:33.925Z,83.60
2018-04-30T23:34:00.601Z,83.60
2018-04-30T23:36:27.276Z,83.50
2018-04-30T23:38:53.954Z,84.00
2018-04-30T23:41:21.657Z,84.40
2018-04-30T23:43:48.316Z,84.40
2018-04-30T23:46:15.047Z,85.00
2018-04-30T23:48:41.734Z,85.80
2018-04-30T23:51:09.149Z,85.50
2018-04-30T23:53:35.849Z,85.50
2018-04-30T23:56:02.518Z,86.20
2018-04-30T23:58:29.244Z,87.30
